Wilmington, North Carolina
Current Conditions -  °F | °C
As of 7:53 PM on Tuesday 21 Oct 2014 (Local Time) from KILM Reporting Station
Few Clouds Few Clouds  
Wind Chill: 66°   Ceiling: Unl
Heat Index: 66°   Visibility: 10mi
Dew Point: 57°   Wind: 5mph
Humidity: 73%   Direction: 220°SW
Pressure: 29.87"   Gusts: NA
Location:  34.24°N, 77.94°W
Report Text: KILM 212353Z 22004KT 10SM FEW070 19/14 A2987 RMK AO2 SLP115 T01890139 10256 20189 53012
Loading
Personal Weather Stations






























Interactive Weather Map
Tropical Storm Tracking
New forecast layout! Learn more

10-Day Weather Forecast

Advertisements
Track Severe Weather on mobile